Hamamatsu, Japan
Current Conditions -  °F | °C
As of 8:00 PM on Monday 20 Oct 2014 (Local Time) from RJNS Reporting Station
Light Rain Light Rain  
Wind Chill: 63°   Ceiling: 5000
Heat Index: 63°   Visibility: 6mi
Dew Point: 61°   Wind: 3mph
Humidity: 94%   Direction: 360°N
Pressure: 30.18"   Gusts: NA
Location:  34.72°N, 137.73°E
Report Text: RJNS 201100Z 36003KT 9999 -RA FEW010 SCT030 BKN050 17/16 Q1022
Loading
Personal Weather Stations






























Interactive Weather Map
Tropical Storm Tracking
New forecast layout! Learn more

10-Day Weather Forecast

Advertisements
Track Severe Weather on mobile